sensor_id;sensor_type;location;lat;lon;timestamp;P1;durP1;ratioP1;P2;durP2;ratioP2
46216;SDS011;47258;59.424;13.482;2023-02-01T00:00:32;3.55;;;1.38;;
46216;SDS011;47258;59.424;13.482;2023-02-01T00:02:59;1.40;;;1.23;;
46216;SDS011;47258;59.424;13.482;2023-02-01T00:05:26;2.28;;;1.08;;
46216;SDS011;47258;59.424;13.482;2023-02-01T00:07:53;1.20;;;1.02;;
46216;SDS011;47258;59.424;13.482;2023-02-01T00:10:20;4.68;;;1.10;;
46216;SDS011;47258;59.424;13.482;2023-02-01T00:12:47;1.40;;;1.27;;
46216;SDS011;47258;59.424;13.482;2023-02-01T00:15:15;5.80;;;1.25;;
46216;SDS011;47258;59.424;13.482;2023-02-01T00:17:43;5.65;;;1.38;;
46216;SDS011;47258;59.424;13.482;2023-02-01T00:20:10;3.92;;;1.15;;
46216;SDS011;47258;59.424;13.482;2023-02-01T00:22:38;3.10;;;0.95;;
46216;SDS011;47258;59.424;13.482;2023-02-01T00:25:05;9.93;;;2.38;;
46216;SDS011;47258;59.424;13.482;2023-02-01T00:27:33;2.20;;;1.27;;
46216;SDS011;47258;59.424;13.482;2023-02-01T00:30:00;5.28;;;1.58;;
46216;SDS011;47258;59.424;13.482;2023-02-01T00:32:27;1.27;;;0.80;;
46216;SDS011;47258;59.424;13.482;2023-02-01T00:34:55;3.05;;;0.77;;
46216;SDS011;47258;59.424;13.482;2023-02-01T00:37:22;0.88;;;0.88;;
46216;SDS011;47258;59.424;13.482;2023-02-01T00:39:49;2.42;;;1.10;;
46216;SDS011;47258;59.424;13.482;2023-02-01T00:42:19;2.05;;;1.20;;
46216;SDS011;47258;59.424;13.482;2023-02-01T00:44:46;0.80;;;0.80;;
46216;SDS011;47258;59.424;13.482;2023-02-01T00:47:14;0.93;;;0.80;;
46216;SDS011;47258;59.424;13.482;2023-02-01T00:49:41;1.63;;;1.05;;
46216;SDS011;47258;59.424;13.482;2023-02-01T00:52:09;0.57;;;0.57;;
46216;SDS011;47258;59.424;13.482;2023-02-01T00:54:36;2.08;;;0.90;;
46216;SDS011;47258;59.424;13.482;2023-02-01T00:57:03;3.42;;;0.93;;
46216;SDS011;47258;59.424;13.482;2023-02-01T00:59:30;1.55;;;0.85;;
46216;SDS011;47258;59.424;13.482;2023-02-01T01:01:57;2.05;;;1.30;;
46216;SDS011;47258;59.424;13.482;2023-02-01T01:04:24;0.85;;;0.60;;
46216;SDS011;47258;59.424;13.482;2023-02-01T01:06:51;1.60;;;0.95;;
46216;SDS011;47258;59.424;13.482;2023-02-01T01:09:20;0.63;;;0.50;;
46216;SDS011;47258;59.424;13.482;2023-02-01T01:11:47;0.80;;;0.63;;
46216;SDS011;47258;59.424;13.482;2023-02-01T01:14:16;1.33;;;0.77;;
46216;SDS011;47258;59.424;13.482;2023-02-01T01:16:43;0.88;;;0.60;;
46216;SDS011;47258;59.424;13.482;2023-02-01T01:19:10;2.22;;;1.02;;
46216;SDS011;47258;59.424;13.482;2023-02-01T01:21:37;0.82;;;0.77;;
46216;SDS011;47258;59.424;13.482;2023-02-01T01:24:05;1.10;;;0.60;;
46216;SDS011;47258;59.424;13.482;2023-02-01T01:26:33;2.08;;;0.93;;
46216;SDS011;47258;59.424;13.482;2023-02-01T01:29:00;3.10;;;0.80;;
46216;SDS011;47258;59.424;13.482;2023-02-01T01:31:27;1.48;;;0.80;;
46216;SDS011;47258;59.424;13.482;2023-02-01T01:33:55;1.05;;;0.60;;
46216;SDS011;47258;59.424;13.482;2023-02-01T01:36:24;1.20;;;0.60;;
46216;SDS011;47258;59.424;13.482;2023-02-01T01:38:51;0.90;;;0.60;;
46216;SDS011;47258;59.424;13.482;2023-02-01T01:41:20;0.80;;;0.80;;
46216;SDS011;47258;59.424;13.482;2023-02-01T01:43:52;0.70;;;0.70;;
46216;SDS011;47258;59.424;13.482;2023-02-01T01:46:21;0.93;;;0.75;;
46216;SDS011;47258;59.424;13.482;2023-02-01T01:48:50;2.45;;;0.63;;
46216;SDS011;47258;59.424;13.482;2023-02-01T01:51:22;2.58;;;0.80;;
46216;SDS011;47258;59.424;13.482;2023-02-01T01:53:54;0.70;;;0.70;;
46216;SDS011;47258;59.424;13.482;2023-02-01T01:56:25;0.60;;;0.60;;
46216;SDS011;47258;59.424;13.482;2023-02-01T01:58:56;0.47;;;0.40;;
46216;SDS011;47258;59.424;13.482;2023-02-01T02:01:23;0.73;;;0.73;;
46216;SDS011;47258;59.424;13.482;2023-02-01T02:03:50;0.60;;;0.60;;
46216;SDS011;47258;59.424;13.482;2023-02-01T02:06:21;0.73;;;0.52;;
46216;SDS011;47258;59.424;13.482;2023-02-01T02:08:53;1.05;;;0.80;;
46216;SDS011;47258;59.424;13.482;2023-02-01T02:11:20;2.30;;;0.68;;
46216;SDS011;47258;59.424;13.482;2023-02-01T02:13:48;0.73;;;0.73;;
46216;SDS011;47258;59.424;13.482;2023-02-01T02:16:26;0.73;;;0.63;;
46216;SDS011;47258;59.424;13.482;2023-02-01T02:19:26;4.13;;;1.00;;
46216;SDS011;47258;59.424;13.482;2023-02-01T02:22:13;2.75;;;0.80;;
46216;SDS011;47258;59.424;13.482;2023-02-01T02:28:11;0.80;;;0.80;;
46216;SDS011;47258;59.424;13.482;2023-02-01T02:31:12;1.58;;;0.75;;
46216;SDS011;47258;59.424;13.482;2023-02-01T02:34:07;0.70;;;0.55;;
46216;SDS011;47258;59.424;13.482;2023-02-01T02:36:43;1.02;;;0.80;;
46216;SDS011;47258;59.424;13.482;2023-02-01T02:41:51;0.75;;;0.75;;
46216;SDS011;47258;59.424;13.482;2023-02-01T02:44:44;1.05;;;0.75;;
46216;SDS011;47258;59.424;13.482;2023-02-01T02:50:08;0.75;;;0.75;;
46216;SDS011;47258;59.424;13.482;2023-02-01T02:53:00;0.67;;;0.67;;
46216;SDS011;47258;59.424;13.482;2023-02-01T02:55:47;1.27;;;0.82;;
46216;SDS011;47258;59.424;13.482;2023-02-01T02:58:17;1.27;;;0.75;;
46216;SDS011;47258;59.424;13.482;2023-02-01T03:01:02;1.30;;;0.82;;
46216;SDS011;47258;59.424;13.482;2023-02-01T03:03:47;1.15;;;1.05;;
46216;SDS011;47258;59.424;13.482;2023-02-01T03:06:35;1.30;;;0.80;;
46216;SDS011;47258;59.424;13.482;2023-02-01T03:09:05;0.60;;;0.60;;
46216;SDS011;47258;59.424;13.482;2023-02-01T03:11:38;1.75;;;1.10;;
46216;SDS011;47258;59.424;13.482;2023-02-01T03:14:29;1.10;;;0.90;;
46216;SDS011;47258;59.424;13.482;2023-02-01T03:17:01;0.90;;;0.77;;
46216;SDS011;47258;59.424;13.482;2023-02-01T03:19:35;3.35;;;0.70;;
46216;SDS011;47258;59.424;13.482;2023-02-01T03:22:10;0.90;;;0.70;;
46216;SDS011;47258;59.424;13.482;2023-02-01T03:24:41;3.55;;;1.25;;
46216;SDS011;47258;59.424;13.482;2023-02-01T03:27:11;2.05;;;1.17;;
46216;SDS011;47258;59.424;13.482;2023-02-01T03:29:44;0.60;;;0.60;;
46216;SDS011;47258;59.424;13.482;2023-02-01T03:32:15;2.60;;;1.00;;
46216;SDS011;47258;59.424;13.482;2023-02-01T03:34:43;2.05;;;1.30;;
46216;SDS011;47258;59.424;13.482;2023-02-01T03:37:12;2.65;;;1.50;;
46216;SDS011;47258;59.424;13.482;2023-02-01T03:39:45;2.45;;;1.30;;
46216;SDS011;47258;59.424;13.482;2023-02-01T03:42:18;3.22;;;1.00;;
46216;SDS011;47258;59.424;13.482;2023-02-01T03:44:51;2.47;;;1.23;;
46216;SDS011;47258;59.424;13.482;2023-02-01T03:47:25;3.97;;;1.60;;
46216;SDS011;47258;59.424;13.482;2023-02-01T03:49:57;1.60;;;1.40;;
46216;SDS011;47258;59.424;13.482;2023-02-01T03:52:28;2.35;;;1.52;;
46216;SDS011;47258;59.424;13.482;2023-02-01T03:54:59;0.90;;;0.90;;
46216;SDS011;47258;59.424;13.482;2023-02-01T03:57:29;2.50;;;1.67;;
46216;SDS011;47258;59.424;13.482;2023-02-01T04:00:03;1.83;;;1.00;;
46216;SDS011;47258;59.424;13.482;2023-02-01T04:02:32;1.42;;;1.05;;
46216;SDS011;47258;59.424;13.482;2023-02-01T04:04:59;1.98;;;1.05;;
46216;SDS011;47258;59.424;13.482;2023-02-01T04:07:29;3.50;;;1.25;;
46216;SDS011;47258;59.424;13.482;2023-02-01T04:09:57;3.78;;;1.38;;
46216;SDS011;47258;59.424;13.482;2023-02-01T04:12:24;3.58;;;1.52;;
46216;SDS011;47258;59.424;13.482;2023-02-01T04:14:51;1.13;;;1.10;;
46216;SDS011;47258;59.424;13.482;2023-02-01T04:17:18;0.85;;;0.60;;
46216;SDS011;47258;59.424;13.482;2023-02-01T04:19:45;3.88;;;1.35;;
46216;SDS011;47258;59.424;13.482;2023-02-01T04:22:12;3.03;;;1.38;;
46216;SDS011;47258;59.424;13.482;2023-02-01T04:24:40;1.20;;;1.10;;
46216;SDS011;47258;59.424;13.482;2023-02-01T04:27:07;1.45;;;0.85;;
46216;SDS011;47258;59.424;13.482;2023-02-01T04:29:34;1.48;;;1.17;;
46216;SDS011;47258;59.424;13.482;2023-02-01T04:32:02;3.90;;;1.30;;
46216;SDS011;47258;59.424;13.482;2023-02-01T04:34:29;3.08;;;0.90;;
46216;SDS011;47258;59.424;13.482;2023-02-01T04:36:56;3.28;;;0.80;;
46216;SDS011;47258;59.424;13.482;2023-02-01T04:39:23;2.70;;;1.10;;
46216;SDS011;47258;59.424;13.482;2023-02-01T04:41:51;2.35;;;1.52;;
46216;SDS011;47258;59.424;13.482;2023-02-01T04:44:19;1.02;;;0.85;;
46216;SDS011;47258;59.424;13.482;2023-02-01T04:46:46;1.45;;;0.90;;
46216;SDS011;47258;59.424;13.482;2023-02-01T04:49:13;1.45;;;0.93;;
46216;SDS011;47258;59.424;13.482;2023-02-01T04:51:41;3.33;;;1.05;;
46216;SDS011;47258;59.424;13.482;2023-02-01T04:54:09;1.40;;;0.90;;
46216;SDS011;47258;59.424;13.482;2023-02-01T04:56:37;2.50;;;1.30;;
46216;SDS011;47258;59.424;13.482;2023-02-01T04:59:06;2.63;;;0.90;;
46216;SDS011;47258;59.424;13.482;2023-02-01T05:01:33;1.10;;;0.80;;
46216;SDS011;47258;59.424;13.482;2023-02-01T05:04:00;3.03;;;1.83;;
46216;SDS011;47258;59.424;13.482;2023-02-01T05:06:27;0.82;;;0.75;;
46216;SDS011;47258;59.424;13.482;2023-02-01T05:08:54;3.33;;;1.17;;
46216;SDS011;47258;59.424;13.482;2023-02-01T05:11:21;2.47;;;1.10;;
46216;SDS011;47258;59.424;13.482;2023-02-01T05:14:07;2.53;;;1.30;;
46216;SDS011;47258;59.424;13.482;2023-02-01T05:16:34;5.68;;;1.10;;
46216;SDS011;47258;59.424;13.482;2023-02-01T05:19:01;2.35;;;1.35;;
46216;SDS011;47258;59.424;13.482;2023-02-01T05:21:28;7.05;;;1.33;;
46216;SDS011;47258;59.424;13.482;2023-02-01T05:23:55;2.28;;;1.23;;
46216;SDS011;47258;59.424;13.482;2023-02-01T05:26:41;3.20;;;1.30;;
46216;SDS011;47258;59.424;13.482;2023-02-01T05:29:10;2.40;;;1.30;;
46216;SDS011;47258;59.424;13.482;2023-02-01T05:31:38;1.55;;;1.25;;
46216;SDS011;47258;59.424;13.482;2023-02-01T05:34:05;5.43;;;1.17;;
46216;SDS011;47258;59.424;13.482;2023-02-01T05:36:32;2.17;;;1.40;;
46216;SDS011;47258;59.424;13.482;2023-02-01T05:38:59;3.88;;;1.25;;
46216;SDS011;47258;59.424;13.482;2023-02-01T05:41:26;2.78;;;1.55;;
46216;SDS011;47258;59.424;13.482;2023-02-01T05:43:53;2.15;;;1.50;;
46216;SDS011;47258;59.424;13.482;2023-02-01T05:46:22;6.07;;;2.17;;
46216;SDS011;47258;59.424;13.482;2023-02-01T05:48:49;4.35;;;1.70;;
46216;SDS011;47258;59.424;13.482;2023-02-01T05:51:16;2.20;;;2.00;;
46216;SDS011;47258;59.424;13.482;2023-02-01T05:53:43;2.65;;;2.13;;
46216;SDS011;47258;59.424;13.482;2023-02-01T05:56:10;2.83;;;1.80;;
46216;SDS011;47258;59.424;13.482;2023-02-01T05:58:37;6.32;;;3.17;;
46216;SDS011;47258;59.424;13.482;2023-02-01T06:01:04;2.25;;;2.05;;
46216;SDS011;47258;59.424;13.482;2023-02-01T06:03:33;4.07;;;2.10;;
46216;SDS011;47258;59.424;13.482;2023-02-01T06:06:00;7.00;;;1.98;;
46216;SDS011;47258;59.424;13.482;2023-02-01T06:08:27;5.13;;;2.42;;
46216;SDS011;47258;59.424;13.482;2023-02-01T06:10:58;38.33;;;14.23;;
46216;SDS011;47258;59.424;13.482;2023-02-01T06:13:25;93.07;;;28.05;;
46216;SDS011;47258;59.424;13.482;2023-02-01T06:15:52;42.08;;;15.43;;
46216;SDS011;47258;59.424;13.482;2023-02-01T06:18:20;57.38;;;17.73;;
46216;SDS011;47258;59.424;13.482;2023-02-01T06:20:52;37.35;;;13.25;;
46216;SDS011;47258;59.424;13.482;2023-02-01T06:23:20;46.15;;;13.95;;
46216;SDS011;47258;59.424;13.482;2023-02-01T06:25:49;28.47;;;9.63;;
46216;SDS011;47258;59.424;13.482;2023-02-01T06:28:17;18.13;;;7.75;;
46216;SDS011;47258;59.424;13.482;2023-02-01T06:30:44;24.48;;;9.52;;
46216;SDS011;47258;59.424;13.482;2023-02-01T06:33:12;19.90;;;7.03;;
46216;SDS011;47258;59.424;13.482;2023-02-01T06:35:41;10.75;;;5.22;;
46216;SDS011;47258;59.424;13.482;2023-02-01T06:38:10;14.90;;;6.00;;
46216;SDS011;47258;59.424;13.482;2023-02-01T06:40:37;19.03;;;5.87;;
46216;SDS011;47258;59.424;13.482;2023-02-01T06:43:06;9.80;;;4.22;;
46216;SDS011;47258;59.424;13.482;2023-02-01T06:45:33;6.72;;;3.47;;
46216;SDS011;47258;59.424;13.482;2023-02-01T06:48:00;4.25;;;2.58;;
46216;SDS011;47258;59.424;13.482;2023-02-01T06:50:27;3.10;;;1.75;;
46216;SDS011;47258;59.424;13.482;2023-02-01T06:52:54;4.97;;;2.20;;
46216;SDS011;47258;59.424;13.482;2023-02-01T06:55:23;3.25;;;1.83;;
46216;SDS011;47258;59.424;13.482;2023-02-01T06:57:52;1.73;;;1.60;;
46216;SDS011;47258;59.424;13.482;2023-02-01T07:00:20;3.78;;;2.05;;
46216;SDS011;47258;59.424;13.482;2023-02-01T07:02:48;6.20;;;2.10;;
46216;SDS011;47258;59.424;13.482;2023-02-01T07:05:15;12.50;;;2.33;;
46216;SDS011;47258;59.424;13.482;2023-02-01T07:07:43;2.45;;;1.80;;
46216;SDS011;47258;59.424;13.482;2023-02-01T07:10:10;4.95;;;2.53;;
46216;SDS011;47258;59.424;13.482;2023-02-01T07:12:39;3.58;;;1.85;;
46216;SDS011;47258;59.424;13.482;2023-02-01T07:15:06;4.45;;;2.33;;
46216;SDS011;47258;59.424;13.482;2023-02-01T07:17:33;2.42;;;1.95;;
46216;SDS011;47258;59.424;13.482;2023-02-01T07:20:01;3.88;;;1.58;;
46216;SDS011;47258;59.424;13.482;2023-02-01T07:22:28;4.80;;;1.65;;
46216;SDS011;47258;59.424;13.482;2023-02-01T07:24:55;4.90;;;1.52;;
46216;SDS011;47258;59.424;13.482;2023-02-01T07:27:22;5.72;;;1.88;;
46216;SDS011;47258;59.424;13.482;2023-02-01T07:29:52;3.45;;;1.90;;
46216;SDS011;47258;59.424;13.482;2023-02-01T07:32:20;1.40;;;1.35;;
46216;SDS011;47258;59.424;13.482;2023-02-01T07:34:47;2.50;;;1.60;;
46216;SDS011;47258;59.424;13.482;2023-02-01T07:37:14;4.10;;;1.70;;
46216;SDS011;47258;59.424;13.482;2023-02-01T07:39:41;5.50;;;1.85;;
46216;SDS011;47258;59.424;13.482;2023-02-01T07:42:09;6.55;;;2.40;;
46216;SDS011;47258;59.424;13.482;2023-02-01T07:44:36;1.70;;;1.60;;
46216;SDS011;47258;59.424;13.482;2023-02-01T07:47:04;5.30;;;1.55;;
46216;SDS011;47258;59.424;13.482;2023-02-01T07:49:32;1.20;;;1.15;;
46216;SDS011;47258;59.424;13.482;2023-02-01T07:51:59;3.03;;;1.30;;
46216;SDS011;47258;59.424;13.482;2023-02-01T07:54:26;2.58;;;1.13;;
46216;SDS011;47258;59.424;13.482;2023-02-01T07:56:53;2.03;;;1.40;;
46216;SDS011;47258;59.424;13.482;2023-02-01T07:59:20;3.50;;;1.27;;
46216;SDS011;47258;59.424;13.482;2023-02-01T08:01:47;3.78;;;1.20;;
46216;SDS011;47258;59.424;13.482;2023-02-01T08:04:14;2.58;;;1.15;;
46216;SDS011;47258;59.424;13.482;2023-02-01T08:06:41;2.78;;;1.42;;
46216;SDS011;47258;59.424;13.482;2023-02-01T08:09:08;1.88;;;1.33;;
46216;SDS011;47258;59.424;13.482;2023-02-01T08:11:36;1.30;;;1.20;;
46216;SDS011;47258;59.424;13.482;2023-02-01T08:14:03;3.20;;;1.77;;
46216;SDS011;47258;59.424;13.482;2023-02-01T08:16:31;2.65;;;1.33;;
46216;SDS011;47258;59.424;13.482;2023-02-01T08:19:01;1.23;;;1.15;;
46216;SDS011;47258;59.424;13.482;2023-02-01T08:21:29;5.00;;;1.88;;
46216;SDS011;47258;59.424;13.482;2023-02-01T08:24:02;1.52;;;1.42;;
46216;SDS011;47258;59.424;13.482;2023-02-01T08:26:30;1.97;;;1.47;;
46216;SDS011;47258;59.424;13.482;2023-02-01T08:28:58;2.85;;;1.80;;
46216;SDS011;47258;59.424;13.482;2023-02-01T08:31:26;4.18;;;1.58;;
46216;SDS011;47258;59.424;13.482;2023-02-01T08:33:55;2.57;;;1.70;;
46216;SDS011;47258;59.424;13.482;2023-02-01T08:36:24;4.05;;;1.65;;
46216;SDS011;47258;59.424;13.482;2023-02-01T08:38:54;2.42;;;1.30;;
46216;SDS011;47258;59.424;13.482;2023-02-01T08:41:21;3.10;;;1.70;;
46216;SDS011;47258;59.424;13.482;2023-02-01T08:43:50;2.07;;;1.47;;
46216;SDS011;47258;59.424;13.482;2023-02-01T08:46:19;5.00;;;1.85;;
46216;SDS011;47258;59.424;13.482;2023-02-01T08:48:46;2.30;;;1.80;;
46216;SDS011;47258;59.424;13.482;2023-02-01T08:51:14;3.83;;;1.70;;
46216;SDS011;47258;59.424;13.482;2023-02-01T08:53:43;1.73;;;1.27;;
46216;SDS011;47258;59.424;13.482;2023-02-01T08:56:12;1.88;;;1.35;;
46216;SDS011;47258;59.424;13.482;2023-02-01T08:58:41;1.10;;;1.00;;
46216;SDS011;47258;59.424;13.482;2023-02-01T09:01:09;3.38;;;1.40;;
46216;SDS011;47258;59.424;13.482;2023-02-01T09:03:38;2.15;;;1.58;;
46216;SDS011;47258;59.424;13.482;2023-02-01T09:06:06;2.78;;;1.20;;
46216;SDS011;47258;59.424;13.482;2023-02-01T09:08:35;1.88;;;1.63;;
46216;SDS011;47258;59.424;13.482;2023-02-01T09:11:03;1.27;;;1.10;;
46216;SDS011;47258;59.424;13.482;2023-02-01T09:13:32;2.78;;;1.33;;
46216;SDS011;47258;59.424;13.482;2023-02-01T09:16:00;1.48;;;1.25;;
46216;SDS011;47258;59.424;13.482;2023-02-01T09:18:27;2.25;;;1.00;;
46216;SDS011;47258;59.424;13.482;2023-02-01T09:20:55;1.73;;;1.20;;
46216;SDS011;47258;59.424;13.482;2023-02-01T09:23:22;1.73;;;1.02;;
46216;SDS011;47258;59.424;13.482;2023-02-01T09:25:49;2.67;;;1.20;;
46216;SDS011;47258;59.424;13.482;2023-02-01T09:28:16;2.10;;;1.00;;
46216;SDS011;47258;59.424;13.482;2023-02-01T09:30:45;3.05;;;1.40;;
46216;SDS011;47258;59.424;13.482;2023-02-01T09:33:12;1.30;;;1.20;;
46216;SDS011;47258;59.424;13.482;2023-02-01T09:35:39;0.98;;;0.98;;
46216;SDS011;47258;59.424;13.482;2023-02-01T09:38:06;7.45;;;0.98;;
46216;SDS011;47258;59.424;13.482;2023-02-01T09:40:33;1.50;;;0.98;;
46216;SDS011;47258;59.424;13.482;2023-02-01T09:43:14;2.33;;;1.02;;
46216;SDS011;47258;59.424;13.482;2023-02-01T09:45:53;1.50;;;1.37;;
46216;SDS011;47258;59.424;13.482;2023-02-01T09:48:33;1.95;;;1.40;;
46216;SDS011;47258;59.424;13.482;2023-02-01T09:51:05;5.63;;;0.85;;
46216;SDS011;47258;59.424;13.482;2023-02-01T09:53:40;0.70;;;0.70;;
46216;SDS011;47258;59.424;13.482;2023-02-01T09:56:11;3.08;;;0.88;;
46216;SDS011;47258;59.424;13.482;2023-02-01T09:58:41;1.45;;;1.25;;
46216;SDS011;47258;59.424;13.482;2023-02-01T10:01:15;1.13;;;1.00;;
46216;SDS011;47258;59.424;13.482;2023-02-01T10:03:45;2.33;;;1.17;;
46216;SDS011;47258;59.424;13.482;2023-02-01T10:06:19;3.80;;;0.93;;
46216;SDS011;47258;59.424;13.482;2023-02-01T10:09:15;2.17;;;1.08;;
46216;SDS011;47258;59.424;13.482;2023-02-01T10:14:55;1.67;;;0.90;;
46216;SDS011;47258;59.424;13.482;2023-02-01T10:17:31;1.55;;;0.68;;
46216;SDS011;47258;59.424;13.482;2023-02-01T10:20:16;1.27;;;0.70;;
46216;SDS011;47258;59.424;13.482;2023-02-01T10:22:52;1.33;;;0.60;;
46216;SDS011;47258;59.424;13.482;2023-02-01T10:25:26;4.32;;;0.60;;
46216;SDS011;47258;59.424;13.482;2023-02-01T10:27:59;3.55;;;1.17;;
46216;SDS011;47258;59.424;13.482;2023-02-01T10:30:29;1.60;;;0.75;;
46216;SDS011;47258;59.424;13.482;2023-02-01T10:33:07;4.80;;;0.80;;
46216;SDS011;47258;59.424;13.482;2023-02-01T10:35:41;1.70;;;0.70;;
46216;SDS011;47258;59.424;13.482;2023-02-01T10:38:12;5.25;;;1.00;;
46216;SDS011;47258;59.424;13.482;2023-02-01T10:40:44;0.80;;;0.70;;
46216;SDS011;47258;59.424;13.482;2023-02-01T10:43:12;5.53;;;1.00;;
46216;SDS011;47258;59.424;13.482;2023-02-01T10:45:39;4.68;;;0.70;;
46216;SDS011;47258;59.424;13.482;2023-02-01T10:48:09;0.70;;;0.70;;
46216;SDS011;47258;59.424;13.482;2023-02-01T10:50:37;1.63;;;0.70;;
46216;SDS011;47258;59.424;13.482;2023-02-01T10:53:10;3.53;;;0.75;;
46216;SDS011;47258;59.424;13.482;2023-02-01T10:55:46;2.17;;;0.80;;
46216;SDS011;47258;59.424;13.482;2023-02-01T10:58:16;0.95;;;0.63;;
46216;SDS011;47258;59.424;13.482;2023-02-01T11:00:48;3.88;;;1.50;;
46216;SDS011;47258;59.424;13.482;2023-02-01T11:06:11;1.10;;;0.75;;
46216;SDS011;47258;59.424;13.482;2023-02-01T11:08:48;2.70;;;0.60;;
46216;SDS011;47258;59.424;13.482;2023-02-01T11:11:16;4.20;;;1.05;;
46216;SDS011;47258;59.424;13.482;2023-02-01T11:13:44;2.92;;;0.77;;
46216;SDS011;47258;59.424;13.482;2023-02-01T11:16:17;4.10;;;0.80;;
46216;SDS011;47258;59.424;13.482;2023-02-01T11:18:46;3.80;;;0.82;;
46216;SDS011;47258;59.424;13.482;2023-02-01T11:21:19;1.75;;;0.40;;
46216;SDS011;47258;59.424;13.482;2023-02-01T11:23:48;2.95;;;0.73;;
46216;SDS011;47258;59.424;13.482;2023-02-01T11:26:20;0.95;;;0.60;;
46216;SDS011;47258;59.424;13.482;2023-02-01T11:28:53;2.67;;;0.75;;
46216;SDS011;47258;59.424;13.482;2023-02-01T11:31:24;5.05;;;1.00;;
46216;SDS011;47258;59.424;13.482;2023-02-01T11:33:54;4.67;;;0.80;;
46216;SDS011;47258;59.424;13.482;2023-02-01T11:36:26;4.47;;;0.85;;
46216;SDS011;47258;59.424;13.482;2023-02-01T11:39:07;1.85;;;1.00;;
46216;SDS011;47258;59.424;13.482;2023-02-01T11:41:40;0.95;;;0.70;;
46216;SDS011;47258;59.424;13.482;2023-02-01T11:44:18;0.93;;;0.85;;
46216;SDS011;47258;59.424;13.482;2023-02-01T11:46:47;2.10;;;0.80;;
46216;SDS011;47258;59.424;13.482;2023-02-01T11:49:20;2.85;;;0.80;;
46216;SDS011;47258;59.424;13.482;2023-02-01T11:52:07;3.28;;;1.77;;
46216;SDS011;47258;59.424;13.482;2023-02-01T11:57:31;1.85;;;0.85;;
46216;SDS011;47258;59.424;13.482;2023-02-01T12:00:17;3.97;;;0.90;;
46216;SDS011;47258;59.424;13.482;2023-02-01T12:05:54;0.95;;;0.65;;
46216;SDS011;47258;59.424;13.482;2023-02-01T12:08:29;2.47;;;0.60;;
46216;SDS011;47258;59.424;13.482;2023-02-01T12:11:20;1.02;;;0.68;;
46216;SDS011;47258;59.424;13.482;2023-02-01T12:13:59;2.17;;;1.00;;
46216;SDS011;47258;59.424;13.482;2023-02-01T12:16:37;0.70;;;0.68;;
46216;SDS011;47258;59.424;13.482;2023-02-01T12:19:21;0.68;;;0.50;;
46216;SDS011;47258;59.424;13.482;2023-02-01T12:21:59;1.23;;;0.95;;
46216;SDS011;47258;59.424;13.482;2023-02-01T12:24:39;4.75;;;1.73;;
46216;SDS011;47258;59.424;13.482;2023-02-01T12:33:21;4.03;;;1.20;;
46216;SDS011;47258;59.424;13.482;2023-02-01T12:36:07;2.67;;;0.85;;
46216;SDS011;47258;59.424;13.482;2023-02-01T12:38:44;4.15;;;1.23;;
46216;SDS011;47258;59.424;13.482;2023-02-01T12:41:21;6.82;;;1.58;;
46216;SDS011;47258;59.424;13.482;2023-02-01T12:43:57;3.30;;;0.90;;
46216;SDS011;47258;59.424;13.482;2023-02-01T12:46:32;4.93;;;1.92;;
46216;SDS011;47258;59.424;13.482;2023-02-01T12:49:04;1.85;;;0.98;;
46216;SDS011;47258;59.424;13.482;2023-02-01T12:51:36;5.38;;;1.13;;
46216;SDS011;47258;59.424;13.482;2023-02-01T12:54:09;4.07;;;1.08;;
46216;SDS011;47258;59.424;13.482;2023-02-01T12:56:45;6.00;;;1.35;;
46216;SDS011;47258;59.424;13.482;2023-02-01T12:59:17;10.80;;;1.27;;
46216;SDS011;47258;59.424;13.482;2023-02-01T13:01:49;2.47;;;1.27;;
46216;SDS011;47258;59.424;13.482;2023-02-01T13:04:25;5.28;;;1.52;;
46216;SDS011;47258;59.424;13.482;2023-02-01T13:06:58;7.82;;;1.17;;
46216;SDS011;47258;59.424;13.482;2023-02-01T13:09:36;3.25;;;0.88;;
46216;SDS011;47258;59.424;13.482;2023-02-01T13:12:09;2.53;;;0.95;;
46216;SDS011;47258;59.424;13.482;2023-02-01T13:14:41;3.05;;;1.00;;
46216;SDS011;47258;59.424;13.482;2023-02-01T13:17:13;1.52;;;0.65;;
46216;SDS011;47258;59.424;13.482;2023-02-01T13:19:43;2.42;;;1.13;;
46216;SDS011;47258;59.424;13.482;2023-02-01T13:22:16;1.75;;;0.80;;
46216;SDS011;47258;59.424;13.482;2023-02-01T13:24:49;4.18;;;0.90;;
46216;SDS011;47258;59.424;13.482;2023-02-01T13:27:19;5.43;;;0.90;;
46216;SDS011;47258;59.424;13.482;2023-02-01T13:29:49;2.85;;;0.90;;
46216;SDS011;47258;59.424;13.482;2023-02-01T13:32:25;2.25;;;1.23;;
46216;SDS011;47258;59.424;13.482;2023-02-01T13:35:24;2.05;;;1.00;;
46216;SDS011;47258;59.424;13.482;2023-02-01T13:38:30;3.15;;;0.90;;
46216;SDS011;47258;59.424;13.482;2023-02-01T13:41:15;2.03;;;0.80;;
46216;SDS011;47258;59.424;13.482;2023-02-01T13:43:53;4.38;;;1.15;;
46216;SDS011;47258;59.424;13.482;2023-02-01T13:46:25;3.30;;;1.23;;
46216;SDS011;47258;59.424;13.482;2023-02-01T13:48:54;6.53;;;0.70;;
46216;SDS011;47258;59.424;13.482;2023-02-01T13:51:33;2.75;;;0.50;;
46216;SDS011;47258;59.424;13.482;2023-02-01T13:54:03;1.97;;;0.90;;
46216;SDS011;47258;59.424;13.482;2023-02-01T13:56:40;1.80;;;0.55;;
46216;SDS011;47258;59.424;13.482;2023-02-01T14:08:23;2.15;;;0.50;;
46216;SDS011;47258;59.424;13.482;2023-02-01T14:11:03;4.10;;;0.55;;
46216;SDS011;47258;59.424;13.482;2023-02-01T14:13:32;0.75;;;0.47;;
46216;SDS011;47258;59.424;13.482;2023-02-01T14:16:14;1.20;;;0.32;;
46216;SDS011;47258;59.424;13.482;2023-02-01T14:18:58;5.40;;;0.60;;
46216;SDS011;47258;59.424;13.482;2023-02-01T14:21:27;1.40;;;0.63;;
46216;SDS011;47258;59.424;13.482;2023-02-01T14:23:57;0.45;;;0.40;;
46216;SDS011;47258;59.424;13.482;2023-02-01T14:26:27;1.05;;;0.28;;
46216;SDS011;47258;59.424;13.482;2023-02-01T14:32:00;2.33;;;0.47;;
46216;SDS011;47258;59.424;13.482;2023-02-01T14:34:33;2.28;;;1.05;;
46216;SDS011;47258;59.424;13.482;2023-02-01T14:37:08;0.52;;;0.52;;
46216;SDS011;47258;59.424;13.482;2023-02-01T14:39:46;0.60;;;0.60;;
46216;SDS011;47258;59.424;13.482;2023-02-01T14:42:20;0.93;;;0.40;;
46216;SDS011;47258;59.424;13.482;2023-02-01T14:44:52;1.95;;;1.17;;
46216;SDS011;47258;59.424;13.482;2023-02-01T14:47:30;3.50;;;1.50;;
46216;SDS011;47258;59.424;13.482;2023-02-01T14:53:04;1.10;;;0.35;;
46216;SDS011;47258;59.424;13.482;2023-02-01T14:55:54;2.97;;;0.77;;
46216;SDS011;47258;59.424;13.482;2023-02-01T14:58:34;0.35;;;0.35;;
46216;SDS011;47258;59.424;13.482;2023-02-01T15:01:13;0.40;;;0.40;;
46216;SDS011;47258;59.424;13.482;2023-02-01T15:03:46;6.40;;;1.27;;
46216;SDS011;47258;59.424;13.482;2023-02-01T15:06:24;1.25;;;0.50;;
46216;SDS011;47258;59.424;13.482;2023-02-01T15:08:58;0.75;;;0.25;;
46216;SDS011;47258;59.424;13.482;2023-02-01T15:11:28;2.20;;;0.40;;
46216;SDS011;47258;59.424;13.482;2023-02-01T15:13:55;0.60;;;0.55;;
46216;SDS011;47258;59.424;13.482;2023-02-01T15:16:26;0.45;;;0.28;;
46216;SDS011;47258;59.424;13.482;2023-02-01T15:19:09;0.70;;;0.37;;
46216;SDS011;47258;59.424;13.482;2023-02-01T15:21:45;0.98;;;0.30;;
46216;SDS011;47258;59.424;13.482;2023-02-01T15:24:13;0.32;;;0.32;;
46216;SDS011;47258;59.424;13.482;2023-02-01T15:26:41;0.75;;;0.57;;
46216;SDS011;47258;59.424;13.482;2023-02-01T15:29:11;0.60;;;0.60;;
46216;SDS011;47258;59.424;13.482;2023-02-01T15:31:43;0.28;;;0.20;;
46216;SDS011;47258;59.424;13.482;2023-02-01T15:34:11;0.88;;;0.45;;
46216;SDS011;47258;59.424;13.482;2023-02-01T15:36:39;0.57;;;0.40;;
46216;SDS011;47258;59.424;13.482;2023-02-01T15:39:17;0.57;;;0.57;;